Time;durP1;ratioP1;P1;durP2;ratioP2;P2;SDS_P1;SDS_P2;PMS_P1;PMS_P2;Temp;Humidity;BMP_temperature;BMP_pressure;BME280_temperature;BME280_humidity;BME280_pressure;Samples;Min_cycle;Max_cycle;Signal;HPM_P1;HPM_P2
2022/11/23 00:00:35;;;;;;;20.58;14.30;;;7.90;99.90;;;;;;5096656;27;20041;-79
2022/11/23 00:03:01;;;;;;;19.70;13.93;;;7.90;99.90;;;;;;5062408;28;20051;-80
2022/11/23 00:05:28;;;;;;;22.27;16.02;;;7.90;99.90;;;;;;5065690;28;20048;-80
2022/11/23 00:07:54;;;;;;;17.45;14.35;;;7.90;99.90;;;;;;5062368;28;20045;-79
2022/11/23 00:10:19;;;;;;;20.23;13.77;;;8.00;99.90;;;;;;5063305;28;20044;-80
2022/11/23 00:12:45;;;;;;;19.50;14.68;;;8.00;99.90;;;;;;5062417;28;20048;-80
2022/11/23 00:15:13;;;;;;;17.90;13.60;;;8.00;99.90;;;;;;5058724;28;20048;-80
2022/11/23 00:17:39;;;;;;;17.23;14.20;;;8.00;99.90;;;;;;5060980;28;20056;-79
2022/11/23 00:20:06;;;;;;;16.98;13.40;;;8.10;99.90;;;;;;5060731;28;20048;-80
2022/11/23 00:22:32;;;;;;;16.80;14.27;;;8.10;99.90;;;;;;5061058;28;20135;-80
2022/11/23 00:24:58;;;;;;;17.50;13.07;;;8.10;99.90;;;;;;5066701;28;20058;-80
2022/11/23 00:27:23;;;;;;;22.73;14.40;;;8.10;99.90;;;;;;5061973;28;20056;-81
2022/11/23 00:29:49;;;;;;;20.50;14.13;;;8.10;99.90;;;;;;5060416;28;20048;-80
2022/11/23 00:32:15;;;;;;;18.65;14.85;;;8.10;99.90;;;;;;5062603;28;20051;-79
2022/11/23 00:34:40;;;;;;;17.90;13.98;;;8.20;99.90;;;;;;5064318;28;20098;-80
2022/11/23 00:37:06;;;;;;;16.88;12.73;;;8.10;99.90;;;;;;5062308;28;20155;-81
2022/11/23 00:39:32;;;;;;;18.02;13.50;;;8.20;99.90;;;;;;5059438;28;20056;-80
2022/11/23 00:41:57;;;;;;;18.20;13.63;;;8.20;99.90;;;;;;5059171;28;20048;-74
2022/11/23 00:44:23;;;;;;;18.48;13.57;;;8.20;99.90;;;;;;5065446;28;20050;-79
2022/11/23 00:46:49;;;;;;;16.45;12.95;;;8.20;99.90;;;;;;5060503;28;20189;-80
2022/11/23 00:49:15;;;;;;;16.65;13.57;;;8.20;99.90;;;;;;5060290;28;20127;-80
2022/11/23 00:51:40;;;;;;;18.73;13.77;;;8.20;99.90;;;;;;5071767;28;20051;-81
2022/11/23 00:54:06;;;;;;;20.00;12.43;;;8.20;99.90;;;;;;5100054;27;20083;-80
2022/11/23 00:56:33;;;;;;;15.30;12.02;;;8.20;99.90;;;;;;5058702;28;20061;-79
2022/11/23 00:59:01;;;;;;;15.88;13.65;;;8.30;99.90;;;;;;5092981;27;20063;-80
2022/11/23 01:01:29;;;;;;;18.20;13.52;;;8.30;99.90;;;;;;5055795;28;20071;-80
2022/11/23 01:03:57;;;;;;;19.38;13.48;;;8.30;99.90;;;;;;5057737;28;20135;-80
2022/11/23 01:06:26;;;;;;;16.33;12.32;;;8.30;99.90;;;;;;5059529;28;20907;-81
2022/11/23 01:08:57;;;;;;;20.75;12.35;;;8.30;99.90;;;;;;5070645;28;20049;-80
2022/11/23 01:11:24;;;;;;;19.17;12.57;;;8.40;99.90;;;;;;5059077;28;20055;-80
2022/11/23 01:13:50;;;;;;;14.60;12.13;;;8.30;99.90;;;;;;5059977;28;20048;-80
2022/11/23 01:16:24;;;;;;;14.35;11.82;;;8.30;99.90;;;;;;5058134;28;20165;-80
2022/11/23 01:18:54;;;;;;;15.18;12.07;;;8.30;99.90;;;;;;5059776;28;20484;-81
2022/11/23 01:21:21;;;;;;;16.58;11.73;;;8.30;99.90;;;;;;5059686;28;20135;-80
2022/11/23 01:23:46;;;;;;;14.10;11.85;;;8.40;99.90;;;;;;5058484;28;20048;-81
2022/11/23 01:26:12;;;;;;;19.92;12.70;;;8.40;99.90;;;;;;5059404;28;20052;-81
2022/11/23 01:28:39;;;;;;;13.43;10.10;;;8.40;99.90;;;;;;5069186;28;20048;-80
2022/11/23 01:31:14;;;;;;;15.07;12.52;;;8.40;99.90;;;;;;5058630;28;20051;-80
2022/11/23 01:33:40;;;;;;;12.63;11.00;;;8.40;99.90;;;;;;5054764;28;20071;-80
2022/11/23 01:36:18;;;;;;;14.93;10.98;;;8.40;99.90;;;;;;5069306;28;20082;-80
2022/11/23 01:38:45;;;;;;;21.17;12.10;;;8.50;99.90;;;;;;5071064;28;20055;-80
2022/11/23 01:41:26;;;;;;;14.77;10.57;;;8.50;99.90;;;;;;5062224;28;20771;-80
2022/11/23 01:43:52;;;;;;;14.77;10.63;;;8.50;99.90;;;;;;5050817;28;20040;-81
2022/11/23 01:46:18;;;;;;;15.95;11.48;;;8.50;99.90;;;;;;5068644;28;20480;-80
2022/11/23 01:48:55;;;;;;;12.30;10.88;;;8.50;99.90;;;;;;5059315;28;20063;-80
2022/11/23 01:51:30;;;;;;;12.27;10.90;;;8.50;99.90;;;;;;5050857;28;20484;-80
2022/11/23 01:54:07;;;;;;;12.23;10.40;;;8.50;99.90;;;;;;5060068;28;20117;-79
2022/11/23 01:56:39;;;;;;;13.73;10.35;;;8.50;99.90;;;;;;5060023;28;20048;-80
2022/11/23 01:59:10;;;;;;;12.10;10.45;;;8.70;99.90;;;;;;5060102;28;20105;-79
2022/11/23 02:01:36;;;;;;;13.63;10.88;;;8.50;99.90;;;;;;5064268;28;20044;-80
2022/11/23 02:04:03;;;;;;;15.80;10.85;;;8.60;99.90;;;;;;5067130;28;20427;-80
2022/11/23 02:06:30;;;;;;;15.55;11.18;;;8.60;99.90;;;;;;5071859;28;20121;-80
2022/11/23 02:08:56;;;;;;;15.65;10.80;;;8.50;99.90;;;;;;5063842;28;20055;-80
2022/11/23 02:11:22;;;;;;;12.50;9.95;;;8.60;99.90;;;;;;5065936;28;20055;-79
2022/11/23 02:13:49;;;;;;;14.60;10.57;;;8.60;99.90;;;;;;5071216;28;20048;-80
2022/11/23 02:16:16;;;;;;;14.15;9.77;;;8.60;99.90;;;;;;5059654;28;20048;-79
2022/11/23 02:18:44;;;;;;;17.17;11.00;;;8.60;99.90;;;;;;5069674;28;20123;-80
2022/11/23 02:21:10;;;;;;;15.00;9.32;;;8.60;99.90;;;;;;5066515;28;20046;-79
2022/11/23 02:23:47;;;;;;;11.73;9.65;;;8.60;99.90;;;;;;5067342;28;20048;-79
2022/11/23 02:26:21;;;;;;;13.68;9.43;;;8.60;99.90;;;;;;5068004;28;20056;-79
2022/11/23 02:29:00;;;;;;;14.75;9.95;;;8.60;99.90;;;;;;5066934;28;20044;-79
2022/11/23 02:31:26;;;;;;;11.63;9.40;;;8.60;99.90;;;;;;5063740;28;20571;-80
2022/11/23 02:33:52;;;;;;;12.00;9.52;;;8.70;99.90;;;;;;5062420;28;20087;-79
2022/11/23 02:36:38;;;;;;;12.80;9.85;;;8.70;99.90;;;;;;5069691;28;20593;-79
2022/11/23 02:39:22;;;;;;;11.02;9.65;;;8.70;99.90;;;;;;5063021;28;20145;-79
2022/11/23 02:41:52;;;;;;;10.80;8.57;;;8.70;99.90;;;;;;5059960;28;20147;-80
2022/11/23 02:44:36;;;;;;;11.93;9.98;;;8.70;99.90;;;;;;5061920;28;20044;-80
2022/11/23 02:47:02;;;;;;;;;;;8.70;99.90;;;;;;5070759;28;20091;-79
2022/11/23 02:49:27;;;;;;;14.55;9.18;;;8.60;99.90;;;;;;5064738;28;20456;-80
2022/11/23 02:51:53;;;;;;;11.32;8.68;;;8.70;99.90;;;;;;5065157;28;20049;-80
2022/11/23 02:54:19;;;;;;;12.63;8.85;;;8.70;99.90;;;;;;5072326;28;20393;-80
2022/11/23 02:56:45;;;;;;;11.95;8.95;;;8.70;99.90;;;;;;5075864;28;20121;-80
2022/11/23 02:59:10;;;;;;;12.10;8.32;;;8.70;99.90;;;;;;5066045;28;20056;-79
2022/11/23 03:01:38;;;;;;;13.65;9.40;;;8.70;99.90;;;;;;5066191;28;20496;-78
2022/11/23 03:04:04;;;;;;;11.23;7.88;;;8.70;99.90;;;;;;5065036;28;20048;-79
2022/11/23 03:06:30;;;;;;;10.75;8.98;;;8.70;99.90;;;;;;5060878;28;20084;-80
2022/11/23 03:08:56;;;;;;;11.85;8.00;;;8.70;99.90;;;;;;5059434;28;20052;-80
2022/11/23 03:11:21;;;;;;;10.32;8.57;;;8.70;99.90;;;;;;5060777;28;20057;-77
2022/11/23 03:13:47;;;;;;;8.38;7.55;;;8.70;99.90;;;;;;5059214;28;20055;-78
2022/11/23 03:16:13;;;;;;;11.90;7.43;;;8.70;99.90;;;;;;5065833;28;20503;-78
2022/11/23 03:18:39;;;;;;;12.23;8.02;;;8.60;99.90;;;;;;5062348;28;20613;-78
2022/11/23 03:21:08;;;;;;;11.88;8.02;;;8.70;99.90;;;;;;5064133;28;20690;-78
2022/11/23 03:23:35;;;;;;;13.48;8.20;;;8.70;99.90;;;;;;5062796;28;20045;-78
2022/11/23 03:26:00;;;;;;;10.85;7.45;;;8.70;99.90;;;;;;5069996;28;20526;-78
2022/11/23 03:28:26;;;;;;;10.20;8.52;;;8.70;99.90;;;;;;5058294;28;20048;-80
2022/11/23 03:30:52;;;;;;;12.20;8.20;;;8.70;99.90;;;;;;5059479;28;20053;-78
2022/11/23 03:33:18;;;;;;;10.88;7.43;;;8.70;99.90;;;;;;5059745;28;20078;-77
2022/11/23 03:35:43;;;;;;;10.18;8.57;;;9.30;99.90;;;;;;5062297;28;20120;-77
2022/11/23 03:38:09;;;;;;;8.70;7.80;;;8.70;99.90;;;;;;5063030;28;20047;-78
2022/11/23 03:40:35;;;;;;;10.00;7.65;;;8.60;99.90;;;;;;5060876;28;20052;-78
2022/11/23 03:43:01;;;;;;;10.45;8.60;;;8.70;99.90;;;;;;5060296;28;20094;-78
2022/11/23 03:45:27;;;;;;;15.63;9.00;;;8.70;99.90;;;;;;5064261;28;20047;-78
2022/11/23 03:47:52;;;;;;;10.80;9.30;;;8.70;99.90;;;;;;5060557;28;20492;-78
2022/11/23 03:50:18;;;;;;;11.05;9.48;;;8.70;99.90;;;;;;5066550;28;20460;-77
2022/11/23 03:52:44;;;;;;;12.57;8.52;;;8.70;99.90;;;;;;5065373;28;20056;-78
2022/11/23 03:55:10;;;;;;;14.77;9.40;;;8.80;99.90;;;;;;5068709;28;20054;-78
2022/11/23 03:57:35;;;;;;;16.30;9.48;;;8.80;99.90;;;;;;5064661;28;20079;-78
2022/11/23 04:00:01;;;;;;;19.20;10.00;;;8.70;99.90;;;;;;5062264;28;20171;-78
2022/11/23 04:02:27;;;;;;;11.93;9.95;;;8.70;99.90;;;;;;5060939;28;20594;-78
2022/11/23 04:04:52;;;;;;;16.15;9.68;;;8.70;99.90;;;;;;5067124;28;20044;-78
2022/11/23 04:07:18;;;;;;;14.73;9.63;;;8.70;99.90;;;;;;5063047;28;20652;-77
2022/11/23 04:09:44;;;;;;;13.10;9.05;;;9.00;99.90;;;;;;5083006;28;20131;-77
2022/11/23 04:12:09;;;;;;;11.77;9.20;;;8.70;99.90;;;;;;5072862;28;20088;-78
2022/11/23 04:14:35;;;;;;;15.10;10.20;;;8.70;99.90;;;;;;5062459;28;20520;-78
2022/11/23 04:17:01;;;;;;;16.90;11.85;;;8.60;99.90;;;;;;5067986;28;20076;-78
2022/11/23 04:19:27;;;;;;;17.13;10.90;;;8.70;99.90;;;;;;5066771;28;20098;-78
2022/11/23 04:21:53;;;;;;;15.82;10.13;;;8.70;99.90;;;;;;5064053;28;20054;-78
2022/11/23 04:24:19;;;;;;;16.60;11.73;;;8.70;99.90;;;;;;5058197;28;20491;-78
2022/11/23 04:26:45;;;;;;;15.90;10.98;;;8.60;99.90;;;;;;5067076;28;20110;-78
2022/11/23 04:29:11;;;;;;;14.93;9.93;;;8.70;99.90;;;;;;5058163;28;20048;-78
2022/11/23 04:31:36;;;;;;;18.27;11.52;;;8.70;99.90;;;;;;5059441;28;20816;-78
2022/11/23 04:34:02;;;;;;;17.25;11.18;;;9.00;99.90;;;;;;5058724;28;20123;-78
2022/11/23 04:36:28;;;;;;;17.50;11.27;;;8.70;99.90;;;;;;5061617;28;20543;-78
2022/11/23 04:38:54;;;;;;;19.90;11.27;;;8.70;99.90;;;;;;5063117;28;20040;-78
2022/11/23 04:41:19;;;;;;;19.20;11.45;;;8.70;99.90;;;;;;5059468;28;20036;-78
2022/11/23 04:43:47;;;;;;;16.75;11.50;;;8.70;99.90;;;;;;5066457;28;20052;-78
2022/11/23 04:46:13;;;;;;;16.80;12.52;;;8.70;99.90;;;;;;5058835;28;20045;-78
2022/11/23 04:48:39;;;;;;;16.52;12.27;;;8.80;99.90;;;;;;5066838;28;20052;-78
2022/11/23 04:51:05;;;;;;;22.17;13.38;;;8.80;99.90;;;;;;5066048;28;20041;-78
2022/11/23 04:53:31;;;;;;;18.95;12.00;;;8.70;99.90;;;;;;5060172;28;20070;-78
2022/11/23 04:55:56;;;;;;;19.58;12.45;;;8.80;99.90;;;;;;5065889;28;20075;-78
2022/11/23 04:58:22;;;;;;;17.40;12.18;;;8.70;99.90;;;;;;5057475;28;20063;-78
2022/11/23 05:00:48;;;;;;;18.95;12.13;;;8.70;99.90;;;;;;5063719;28;20128;-78
2022/11/23 05:03:13;;;;;;;24.17;13.07;;;8.70;99.90;;;;;;5056173;28;20140;-78
2022/11/23 05:05:40;;;;;;;18.80;12.50;;;8.70;99.90;;;;;;5071066;28;20048;-78
2022/11/23 05:08:07;;;;;;;18.73;12.65;;;8.70;99.90;;;;;;5058001;28;20045;-78
2022/11/23 05:10:32;;;;;;;15.98;11.77;;;8.70;99.90;;;;;;5057902;28;20060;-78
2022/11/23 05:12:58;;;;;;;18.75;12.75;;;8.80;99.90;;;;;;5057495;28;20556;-78
2022/11/23 05:15:24;;;;;;;17.90;11.25;;;8.70;99.90;;;;;;5062855;28;20148;-78
2022/11/23 05:17:50;;;;;;;21.63;13.73;;;8.80;99.90;;;;;;5063851;28;20508;-78
2022/11/23 05:20:16;;;;;;;18.13;12.25;;;9.20;99.90;;;;;;5065515;28;20575;-77
2022/11/23 05:22:42;;;;;;;20.08;12.45;;;8.80;99.90;;;;;;5089994;28;20474;-78
2022/11/23 05:25:08;;;;;;;18.58;11.95;;;8.80;99.90;;;;;;5056012;28;20053;-78
2022/11/23 05:27:34;;;;;;;21.25;12.02;;;8.80;99.90;;;;;;5066259;28;20060;-78
2022/11/23 05:29:59;;;;;;;16.60;11.93;;;8.70;99.90;;;;;;5056153;28;20048;-79
2022/11/23 05:32:25;;;;;;;22.30;13.27;;;8.80;99.90;;;;;;5056342;28;20048;-78
2022/11/23 05:34:51;;;;;;;20.35;12.90;;;8.80;99.90;;;;;;5057749;28;20090;-78
2022/11/23 05:37:17;;;;;;;23.25;13.20;;;8.80;99.90;;;;;;5056919;28;20556;-79
2022/11/23 05:39:42;;;;;;;21.85;12.63;;;8.80;99.90;;;;;;5058006;28;20051;-78
2022/11/23 05:42:08;;;;;;;22.27;14.30;;;8.80;99.90;;;;;;5054788;28;20157;-78
2022/11/23 05:44:34;;;;;;;21.17;12.50;;;8.80;99.90;;;;;;5048723;28;20045;-78
2022/11/23 05:46:59;;;;;;;20.67;13.77;;;8.80;99.90;;;;;;5055184;28;20546;-79
2022/11/23 05:49:25;;;;;;;19.48;12.32;;;8.80;99.90;;;;;;5057502;28;20636;-78
2022/11/23 05:51:51;;;;;;;23.02;12.98;;;8.80;99.90;;;;;;5057655;28;20047;-78
2022/11/23 05:54:17;;;;;;;20.50;13.20;;;8.80;99.90;;;;;;5061958;28;20052;-78
2022/11/23 05:56:42;;;;;;;19.63;11.88;;;8.80;99.90;;;;;;5056088;28;20154;-78
2022/11/23 05:59:09;;;;;;;25.70;12.55;;;8.90;99.90;;;;;;5055724;28;20044;-78
2022/11/23 06:01:35;;;;;;;15.55;11.25;;;9.30;99.90;;;;;;5057633;28;20414;-78
2022/11/23 06:04:01;;;;;;;18.42;11.80;;;8.80;99.90;;;;;;5061144;28;20507;-78
2022/11/23 06:06:26;;;;;;;18.05;11.48;;;8.80;99.90;;;;;;5054259;28;20377;-78
2022/11/23 06:08:52;;;;;;;22.27;12.05;;;8.80;99.90;;;;;;5059274;28;20048;-78
2022/11/23 06:11:18;;;;;;;18.27;11.00;;;8.80;99.90;;;;;;5059967;28;20515;-78
2022/11/23 06:13:46;;;;;;;25.98;12.35;;;8.80;99.90;;;;;;5053967;28;20044;-78
2022/11/23 06:16:12;;;;;;;14.98;11.05;;;8.80;99.90;;;;;;5062348;28;20063;-78
2022/11/23 06:18:38;;;;;;;18.60;10.35;;;8.80;99.90;;;;;;5054828;28;20080;-78
2022/11/23 06:21:03;;;;;;;16.67;10.68;;;8.80;99.90;;;;;;5060735;28;20046;-78
2022/11/23 06:23:29;;;;;;;17.85;11.20;;;8.80;99.90;;;;;;5063314;28;20155;-78
2022/11/23 06:25:59;;;;;;;17.10;11.15;;;8.80;99.90;;;;;;5070602;28;20052;-77
2022/11/23 06:28:26;;;;;;;16.67;10.13;;;8.80;99.90;;;;;;5056404;28;20052;-77
2022/11/23 06:30:51;;;;;;;11.65;8.85;;;8.70;99.90;;;;;;5070870;28;20097;-78
2022/11/23 06:33:17;;;;;;;15.48;10.13;;;8.70;99.90;;;;;;5064427;28;20876;-78
2022/11/23 06:36:00;;;;;;;18.92;10.15;;;8.70;99.90;;;;;;5052380;28;20053;-78
2022/11/23 06:38:26;;;;;;;13.20;9.55;;;8.70;99.90;;;;;;5055083;28;20056;-79
2022/11/23 06:40:52;;;;;;;14.13;9.88;;;8.60;99.90;;;;;;5057588;28;20072;-79
2022/11/23 06:43:18;;;;;;;17.15;9.57;;;8.70;99.90;;;;;;5059736;28;20531;-78
2022/11/23 06:45:44;;;;;;;11.57;8.70;;;8.70;99.90;;;;;;5086197;28;20465;-78
2022/11/23 06:48:09;;;;;;;15.77;8.95;;;8.60;99.90;;;;;;5054303;28;20139;-78
2022/11/23 06:50:35;;;;;;;14.55;9.48;;;8.60;99.90;;;;;;5054985;28;20044;-78
2022/11/23 06:53:01;;;;;;;14.35;9.20;;;8.60;99.90;;;;;;5057398;28;20128;-78
2022/11/23 06:55:26;;;;;;;15.82;9.73;;;8.60;99.90;;;;;;5058947;28;20044;-78
2022/11/23 06:57:52;;;;;;;14.45;8.77;;;8.60;99.90;;;;;;5056496;28;20075;-78
2022/11/23 07:00:19;;;;;;;12.80;8.50;;;8.60;99.90;;;;;;5057148;28;20579;-78
2022/11/23 07:02:51;;;;;;;10.88;8.18;;;8.60;99.90;;;;;;5054827;28;20141;-78
2022/11/23 07:05:17;;;;;;;11.32;8.02;;;8.60;99.90;;;;;;5088278;28;20049;-78
2022/11/23 07:07:43;;;;;;;10.80;7.57;;;8.50;99.90;;;;;;5056457;28;20044;-79
2022/11/23 07:10:09;;;;;;;11.27;8.40;;;8.60;99.90;;;;;;5056886;28;20403;-75
2022/11/23 07:12:34;;;;;;;18.23;8.55;;;8.50;99.90;;;;;;5054466;28;20537;-78
2022/11/23 07:15:00;;;;;;;13.27;8.43;;;8.30;99.90;;;;;;5055162;28;20062;-77
2022/11/23 07:17:26;;;;;;;10.90;7.47;;;8.60;99.90;;;;;;5057402;28;20049;-74
2022/11/23 07:19:52;;;;;;;15.43;8.40;;;8.50;99.90;;;;;;5058374;28;20044;-78
2022/11/23 07:22:17;;;;;;;14.13;6.97;;;8.50;99.90;;;;;;5060934;28;20085;-78
2022/11/23 07:24:43;;;;;;;13.52;7.93;;;8.60;99.90;;;;;;5059210;28;20064;-78
2022/11/23 07:27:09;;;;;;;15.90;6.63;;;8.60;99.90;;;;;;5060020;28;20390;-78
2022/11/23 07:29:34;;;;;;;9.45;6.70;;;8.50;99.90;;;;;;5060091;28;20739;-78
2022/11/23 07:32:00;;;;;;;9.95;6.18;;;8.60;99.90;;;;;;5063102;28;20047;-78
2022/11/23 07:34:28;;;;;;;11.55;6.65;;;8.60;99.90;;;;;;5061121;28;20057;-78
2022/11/23 07:36:54;;;;;;;8.25;5.85;;;8.60;99.90;;;;;;5057606;28;20036;-78
2022/11/23 07:39:20;;;;;;;9.20;6.07;;;8.60;99.90;;;;;;5058268;28;20040;-78
2022/11/23 07:41:48;;;;;;;9.23;5.82;;;8.70;99.90;;;;;;5057101;28;20066;-78
2022/11/23 07:44:13;;;;;;;9.07;6.15;;;8.60;99.90;;;;;;5058317;28;20040;-78
2022/11/23 07:46:39;;;;;;;10.57;6.20;;;8.60;99.90;;;;;;5061424;28;20048;-78
2022/11/23 07:49:05;;;;;;;9.88;5.97;;;8.60;99.90;;;;;;5068100;28;20048;-78
2022/11/23 07:51:31;;;;;;;9.90;5.72;;;8.60;99.90;;;;;;5057560;28;20040;-78
2022/11/23 07:53:56;;;;;;;5.80;4.75;;;8.60;99.90;;;;;;5065967;28;20044;-79
2022/11/23 07:56:23;;;;;;;10.63;6.40;;;8.70;99.90;;;;;;5058106;28;20762;-78
2022/11/23 07:58:48;;;;;;;11.30;5.57;;;8.70;99.90;;;;;;5068236;28;20048;-79
2022/11/23 08:01:17;;;;;;;8.18;5.25;;;8.70;99.90;;;;;;5067935;28;20075;-78
2022/11/23 08:03:44;;;;;;;11.30;5.40;;;8.70;99.90;;;;;;5064304;28;20041;-78
2022/11/23 08:06:10;;;;;;;9.75;5.65;;;8.70;99.90;;;;;;5068426;28;20051;-79
2022/11/23 08:08:37;;;;;;;12.48;5.45;;;8.70;99.90;;;;;;5064635;28;20052;-78
2022/11/23 08:11:04;;;;;;;13.60;5.72;;;8.80;99.90;;;;;;5061388;28;20040;-79
2022/11/23 08:13:31;;;;;;;10.70;4.35;;;8.70;99.90;;;;;;5076549;28;20048;-78
2022/11/23 08:15:57;;;;;;;6.25;4.75;;;8.80;99.90;;;;;;5059580;28;20057;-78
2022/11/23 08:18:23;;;;;;;7.75;4.65;;;8.80;99.90;;;;;;5059312;28;20049;-78
2022/11/23 08:20:48;;;;;;;10.13;4.75;;;8.70;99.90;;;;;;5059730;28;20104;-78
2022/11/23 08:23:14;;;;;;;11.23;5.38;;;8.80;99.90;;;;;;5063600;28;20055;-78
2022/11/23 08:25:40;;;;;;;7.63;4.85;;;8.80;99.90;;;;;;5062367;28;20497;-78
2022/11/23 08:28:06;;;;;;;10.15;5.25;;;8.80;99.90;;;;;;5092231;28;20912;-78
2022/11/23 08:30:33;;;;;;;12.98;5.07;;;8.80;99.90;;;;;;5059547;28;20075;-78
2022/11/23 08:33:03;;;;;;;9.77;4.43;;;8.90;99.90;;;;;;5062115;28;20047;-78
2022/11/23 08:35:28;;;;;;;8.70;4.78;;;8.90;99.90;;;;;;5060788;28;20055;-78
2022/11/23 08:37:54;;;;;;;10.70;5.20;;;8.90;99.90;;;;;;5093598;27;20041;-78
2022/11/23 08:40:19;;;;;;;8.48;5.13;;;8.90;99.90;;;;;;5058158;28;20056;-78
2022/11/23 08:42:46;;;;;;;8.30;4.97;;;9.00;99.90;;;;;;5055107;28;21036;-78
2022/11/23 08:45:12;;;;;;;7.28;4.75;;;9.00;99.90;;;;;;5062742;28;20511;-79
2022/11/23 08:47:37;;;;;;;10.18;5.88;;;8.90;99.90;;;;;;5060294;28;20143;-78
2022/11/23 08:50:03;;;;;;;7.20;4.55;;;9.00;99.90;;;;;;5061320;28;20583;-78
2022/11/23 08:52:29;;;;;;;7.15;4.65;;;9.00;99.90;;;;;;5059591;28;20052;-78
2022/11/23 08:54:55;;;;;;;8.25;4.63;;;9.10;99.90;;;;;;5059981;28;20400;-78
2022/11/23 08:57:20;;;;;;;10.38;5.03;;;9.00;99.90;;;;;;5058857;28;20147;-78
2022/11/23 08:59:46;;;;;;;9.23;4.90;;;9.10;99.90;;;;;;5059539;28;20052;-78
2022/11/23 09:02:13;;;;;;;8.88;4.78;;;9.10;99.90;;;;;;5058824;28;20964;-79
2022/11/23 09:04:40;;;;;;;8.90;4.78;;;9.20;99.90;;;;;;5046363;28;20060;-83
2022/11/23 09:07:06;;;;;;;9.02;4.93;;;9.20;99.90;;;;;;5061393;28;20535;-82
2022/11/23 09:09:32;;;;;;;10.30;4.22;;;9.20;99.90;;;;;;5063576;28;20126;-72
2022/11/23 09:11:57;;;;;;;9.30;5.25;;;9.30;99.90;;;;;;5058948;28;20465;-72
2022/11/23 09:14:24;;;;;;;10.00;4.63;;;9.30;99.90;;;;;;5055181;28;20575;-79
2022/11/23 09:16:49;;;;;;;6.93;4.55;;;9.40;99.90;;;;;;5058100;28;20480;-80
2022/11/23 09:19:15;;;;;;;9.77;4.85;;;9.40;99.90;;;;;;5061637;28;20058;-78
2022/11/23 09:21:41;;;;;;;10.82;4.93;;;9.50;99.90;;;;;;5054052;28;20113;-78
2022/11/23 09:24:12;;;;;;;15.73;4.63;;;9.60;99.90;;;;;;5056810;28;20586;-78
2022/11/23 09:26:38;;;;;;;7.80;4.70;;;9.60;99.90;;;;;;5043477;28;20318;-79
2022/11/23 09:29:06;;;;;;;8.88;4.43;;;9.60;99.90;;;;;;5055903;28;20088;-78
2022/11/23 09:31:32;;;;;;;12.00;4.40;;;9.60;99.90;;;;;;5056331;28;20053;-79
2022/11/23 09:33:57;;;;;;;8.60;4.70;;;9.70;99.90;;;;;;5048064;28;20083;-79
2022/11/23 09:36:23;;;;;;;12.07;4.50;;;9.70;99.90;;;;;;5050686;28;20579;-79
2022/11/23 09:38:49;;;;;;;10.68;4.75;;;9.70;99.90;;;;;;5056928;28;20489;-78
2022/11/23 09:41:39;;;;;;;8.95;4.85;;;9.70;99.90;;;;;;5054854;28;20433;-78
2022/11/23 09:44:23;;;;;;;8.82;4.03;;;9.70;99.90;;;;;;5056329;28;20559;-79
2022/11/23 09:47:11;;;;;;;9.85;4.00;;;9.70;99.90;;;;;;5056870;28;20049;-78
2022/11/23 09:50:06;;;;;;;6.38;4.20;;;9.70;99.90;;;;;;5055279;28;20044;-80
2022/11/23 09:52:34;;;;;;;9.95;4.72;;;9.70;99.90;;;;;;5056686;28;20056;-79
2022/11/23 09:55:05;;;;;;;13.40;5.75;;;9.70;99.90;;;;;;5058647;28;20066;-79
2022/11/23 09:57:34;;;;;;;7.25;4.40;;;9.80;99.90;;;;;;5072109;28;20535;-78
2022/11/23 10:00:04;;;;;;;5.47;4.00;;;9.70;99.90;;;;;;5068592;28;20055;-79
2022/11/23 10:02:35;;;;;;;8.60;4.10;;;9.80;99.90;;;;;;5094846;27;20074;-79
2022/11/23 10:05:03;;;;;;;13.98;4.03;;;9.80;99.90;;;;;;5062578;28;20052;-79
2022/11/23 10:08:13;;;;;;;10.43;4.85;;;9.80;99.90;;;;;;5060014;28;20075;-79
2022/11/23 10:11:08;;;;;;;9.00;4.47;;;9.80;99.90;;;;;;5025974;28;20107;-77
2022/11/23 10:14:00;;;;;;;5.93;3.58;;;9.80;99.90;;;;;;5017974;28;20075;-76
2022/11/23 10:16:43;;;;;;;9.90;3.78;;;9.80;99.90;;;;;;5048740;28;20083;-78
2022/11/23 10:19:22;;;;;;;11.23;3.97;;;9.80;99.90;;;;;;5041401;28;20432;-77
2022/11/23 10:22:44;;;;;;;7.80;3.70;;;9.80;99.90;;;;;;5039576;28;20458;-77
2022/11/23 10:25:15;;;;;;;6.80;3.83;;;9.80;99.90;;;;;;5037726;28;20048;-77
2022/11/23 10:27:44;;;;;;;7.82;3.88;;;9.90;99.90;;;;;;5036817;28;20088;-77
2022/11/23 10:30:14;;;;;;;10.18;4.70;;;9.90;99.90;;;;;;5037908;28;20056;-76
2022/11/23 10:32:49;;;;;;;11.73;4.07;;;9.90;99.90;;;;;;5040326;28;20115;-76
2022/11/23 10:35:34;;;;;;;9.75;3.88;;;9.90;99.90;;;;;;5041505;28;20052;-76
2022/11/23 10:38:20;;;;;;;11.48;4.18;;;9.20;99.90;;;;;;5039807;28;20044;-77
2022/11/23 10:41:02;;;;;;;8.95;4.40;;;9.90;99.90;;;;;;5039892;28;20506;-77
2022/11/23 10:43:37;;;;;;;8.00;3.83;;;9.90;99.90;;;;;;5041637;28;20193;-77
2022/11/23 10:46:29;;;;;;;7.43;3.70;;;9.90;99.90;;;;;;5041951;28;20048;-77
2022/11/23 10:49:06;;;;;;;10.77;3.88;;;9.90;99.90;;;;;;5039418;28;20065;-77
2022/11/23 10:51:32;;;;;;;7.65;2.90;;;9.90;99.90;;;;;;5042758;28;20049;-76
2022/11/23 10:54:03;;;;;;;10.95;3.75;;;9.80;99.90;;;;;;5041254;28;20130;-77
2022/11/23 10:56:30;;;;;;;9.75;3.38;;;9.80;99.90;;;;;;5046349;28;20051;-77
2022/11/23 10:58:56;;;;;;;5.90;3.33;;;9.80;99.90;;;;;;5045391;28;20048;-77
2022/11/23 11:01:24;;;;;;;8.13;4.15;;;9.80;99.90;;;;;;5046210;28;20060;-76
2022/11/23 11:03:52;;;;;;;3.92;2.78;;;9.80;99.90;;;;;;5045105;28;20041;-76
2022/11/23 11:06:29;;;;;;;10.35;3.38;;;9.80;99.90;;;;;;5059887;28;20422;-76
2022/11/23 11:08:58;;;;;;;9.40;2.88;;;9.80;99.90;;;;;;5052449;28;20048;-76
2022/11/23 11:11:31;;;;;;;7.75;3.58;;;9.80;99.90;;;;;;5043810;28;20131;-77
2022/11/23 11:14:23;;;;;;;9.50;3.00;;;9.80;99.90;;;;;;5084758;27;20444;-76
2022/11/23 11:16:57;;;;;;;8.65;3.30;;;9.80;99.90;;;;;;5043551;28;20059;-76
2022/11/23 11:19:31;;;;;;;8.90;3.90;;;9.90;99.90;;;;;;5044717;28;20991;-77
2022/11/23 11:21:59;;;;;;;11.77;4.35;;;10.00;99.90;;;;;;5043409;28;20056;-76
2022/11/23 11:24:34;;;;;;;9.68;3.53;;;9.90;99.90;;;;;;5044325;28;20071;-76
2022/11/23 11:27:11;;;;;;;5.55;2.70;;;9.90;99.90;;;;;;5044591;28;20041;-77
2022/11/23 11:29:45;;;;;;;7.05;2.92;;;9.80;99.90;;;;;;5045066;28;20590;-76
2022/11/23 11:32:11;;;;;;;9.13;3.78;;;9.90;99.90;;;;;;5043610;28;20057;-77
2022/11/23 11:35:01;;;;;;;9.95;3.72;;;9.90;99.90;;;;;;5044835;28;20728;-77
2022/11/23 11:37:39;;;;;;;13.35;3.60;;;10.00;99.90;;;;;;5044016;28;20087;-76
2022/11/23 11:40:32;;;;;;;9.65;3.60;;;10.00;99.90;;;;;;5044317;28;20041;-76
2022/11/23 11:43:12;;;;;;;9.63;4.35;;;10.20;99.90;;;;;;5042715;28;20051;-76
2022/11/23 11:45:46;;;;;;;8.07;2.55;;;10.30;99.90;;;;;;5044007;28;20085;-77
2022/11/23 11:48:23;;;;;;;10.90;4.03;;;10.20;99.90;;;;;;5047721;28;20051;-77
2022/11/23 11:50:59;;;;;;;7.68;2.75;;;10.20;99.90;;;;;;5046088;28;20090;-77
2022/11/23 11:54:06;;;;;;;9.52;3.55;;;10.20;99.90;;;;;;5044624;28;20040;-77
2022/11/23 11:56:49;;;;;;;4.57;3.20;;;10.20;99.90;;;;;;5044518;28;20117;-76
2022/11/23 11:59:41;;;;;;;7.28;4.22;;;10.20;99.90;;;;;;5043846;28;20045;-75
2022/11/23 12:02:22;;;;;;;6.03;2.85;;;10.20;99.90;;;;;;5041838;28;20051;-76
2022/11/23 12:05:19;;;;;;;7.80;3.00;;;10.30;99.90;;;;;;5044020;28;20561;-75
2022/11/23 12:08:05;;;;;;;7.20;2.65;;;10.30;99.90;;;;;;5041724;28;20052;-75
2022/11/23 12:10:58;;;;;;;11.40;2.83;;;10.40;99.90;;;;;;5040823;28;20608;-76
2022/11/23 12:13:30;;;;;;;14.20;4.07;;;10.40;99.90;;;;;;5042423;28;20140;-76
2022/11/23 12:16:29;;;;;;;6.50;2.70;;;10.50;99.90;;;;;;5043615;28;20079;-76
2022/11/23 12:19:17;;;;;;;5.47;2.45;;;10.50;99.90;;;;;;5076072;27;20956;-77
2022/11/23 12:22:03;;;;;;;5.55;2.22;;;10.50;99.90;;;;;;5041806;28;20051;-76
2022/11/23 12:24:55;;;;;;;6.10;2.97;;;10.60;99.90;;;;;;5042574;28;20044;-76
2022/11/23 12:27:39;;;;;;;8.30;3.25;;;10.60;99.90;;;;;;5047532;28;20052;-76
2022/11/23 12:30:20;;;;;;;6.65;3.50;;;10.60;99.90;;;;;;5060274;28;20088;-76
2022/11/23 12:32:57;;;;;;;5.78;2.90;;;10.60;99.90;;;;;;5062041;28;20060;-76
2022/11/23 12:35:28;;;;;;;5.70;2.20;;;10.70;99.90;;;;;;5058026;28;20148;-76
2022/11/23 12:38:09;;;;;;;9.27;2.58;;;10.70;99.90;;;;;;5066621;28;20105;-76
2022/11/23 12:41:06;;;;;;;4.45;2.50;;;10.70;99.90;;;;;;5054717;28;20087;-76
2022/11/23 12:43:55;;;;;;;8.77;2.65;;;10.70;99.90;;;;;;5038261;28;20098;-76
2022/11/23 12:46:27;;;;;;;4.85;2.50;;;10.80;99.90;;;;;;5043000;28;20344;-76
2022/11/23 12:49:04;;;;;;;6.75;2.28;;;10.80;99.90;;;;;;5044054;28;20143;-76
2022/11/23 12:51:33;;;;;;;4.90;2.00;;;10.80;99.90;;;;;;5042055;28;20076;-76
2022/11/23 12:54:35;;;;;;;3.95;2.20;;;10.80;99.90;;;;;;5042225;28;20049;-75
2022/11/23 12:57:11;;;;;;;8.15;2.80;;;10.90;99.90;;;;;;5043009;28;20383;-76
2022/11/23 12:59:45;;;;;;;7.60;2.58;;;10.90;99.90;;;;;;5040362;28;20067;-76